Ridgway, CO

7:06 AM MDT on September 22, 2014 (GMT -0600)
RidgwayLogHill | Change Station
CLOSE
Current Station
Personal Weather Station
Location: Ridgway, CO
Elevation: 7850 ft
Nearby Weather Stations

Elev 7850 ft 38.19 °N, 107.77 °W | Updated 10 minutes ago

Overcast
Overcast
52.5 °F
Feels Like 52.5 °F
N
0.0
Wind Variable Wind from SW
Gusts 5.0 mph

Today
High -- | Low -- °F
--% Chance of Precip.
Yesterday
High -- | Low -- °F
Precip. -- in
6:58 AM 7:07 PM
Waning Crescent, 3% visible
Pressure 30.09 in
Visibility 10.0 miles
Clouds Few 11000 ft
Dew Point 51 °F
Humidity 95%
Rainfall 0.23 in
Snow Depth 0 in , 0 in , 0 in
UV 0 out of 12
Pollen 4.70 out of 12
Air Quality Not available.
Flu Activity Not available.
METAR KMTJ 221253Z AUTO 00000KT 10SM FEW110 15/14 A3028 RMK AO2 RAB17E27 SLP189 P0000 T01500139

More Conditions Fewer Conditions

Pressure 30.09 in
Visibility 10.0 miles
Clouds Few 11000 ft
Dew Point 51 °F
Humidity 95%
Rainfall 0.23 in
Snow Depth 0 in , 0 in , 0 in
UV 0 out of 12
Pollen 4.70 out of 12
Air Quality Not available.
Flu Activity Not available.
METAR KMTJ 221253Z AUTO 00000KT 10SM FEW110 15/14 A3028 RMK AO2 RAB17E27 SLP189 P0000 T01500139

More Conditions Fewer Conditions

10-Day Weather Forecast

Almanac

Astronomy

Sep. 22, 2014 Rise Set
Actual Time 6:58 AM MDT 7:07 PM MDT
Civil Twilight 6:32 AM MDT 7:34 PM MDT
Nautical Twilight 6:01 AM MDT 8:04 PM MDT
Astronomical Twilight 5:30 AM MDT 8:36 PM MDT
Moon 5:31 AM MDT 6:16 PM MDT
Length of Visible Light 13h 01m
Length of Day
12h 09m
Tomorrow will be 2m 26s shorter.
Waning Crescent, 3% of the Moon is Illuminated
Today
Waning Crescent
Sep 24
New
Oct 1
First Quarter
Oct 8
Full
Oct 15
Last Quarter

Today's Extremes

State Highs State Lows

Community

WunderPhotos

Upload Photos

1,755,419 photos uploaded!

Nearby

Snow Depth

Station Depth Elevation
Ivanhoe 0 in 10400 ft
Willow Park 0 in 10700 ft
Bear Lake 0 in 9500 ft
Never Summer 0 in 10280 ft
Echo Lake 0 in 10600 ft

Earthquake Activity

City Distance Mag. Time & Date
No recent earthquake activity has been reported nearby.
Minimum magnitude displayed is 2.5.

Coastal Water Temperatures

Place Temperature
No Stations Reporting

Nearby Weather Stations